White Mountain Summit Weather observations

Data are for 10 minute period ending at time listed.
 Day   Time   Solar   Ave.   Ave.  Ave.  Vector    Max.    Baro.  
  of    of     Rad.   Air    Rel.  Wind   Wind     Wind   Press.  
Year   Day            Temp.  Hum.  Speed  Dir.     Gust           
2014   (PST)   W/m2    F      %     mph   deg.      mph     mb.   
-------------------------------------------------------------------
 323   17:50    0.0    16   89.4    34    269.0    37.7   999.0 
 323   18:00    0.0    16   89.2    34    268.7    40.0   999.0 
 323   18:10    0.0    15   88.6    35    270.4    40.0   999.0 
 323   18:20    0.0    15   88.4    36    271.3    42.4   999.0 
 323   18:30    0.0    15   88.8    35    271.1    40.0   999.0 
 323   18:40    0.0    15   88.8    37    269.4    47.1   999.0 
 323   18:50    0.0    15   88.9    36    270.5    42.4   999.0 
 323   19:00    0.0    15   88.5    33    269.5    40.0   999.0 
 323   19:10    0.0    15   88.8    35    270.4    40.0   999.0 
 323   19:20    0.0    15   88.9    33    270.4    40.0   999.0 
 323   19:30    0.0    15   88.9    33    270.4    40.0   999.0 
 323   19:40    0.0    15   89.0    32    270.6    37.7   999.0 
 323   19:50    0.0    15   88.7    32    271.4    35.3   999.0 
 323   20:00    0.0    14   88.1    31    271.8    35.3   999.0 
 323   20:10    0.0    14   87.2    32    273.3    35.3   999.0 
 323   20:20    0.0    14   86.5    29    276.6    33.0   999.0 
 323   20:30    0.0    14   84.6    27    278.8    33.0   999.0 
 323   20:40    0.0    14   83.7    29    271.8    33.0   999.0 
 323   20:50    0.0    13   80.3    30    275.7    33.0   999.0 
 323   21:00    0.0    13   76.9    30    274.2    35.3   999.0 
 323   21:10    0.0    13   72.4    31    273.7    35.3   999.0 
 323   21:20    0.0    13   66.0    30    273.8    33.0   999.0 
 323   21:30    0.0    14   55.9    29    275.0    35.3   999.0 
 323   21:40    0.0    14   59.8    21    281.0    33.0   999.0 
 323   21:50    0.0    14   62.7    20    273.6    23.5   999.0 
 323   22:00    0.0    14   63.8    17    280.2    21.2   999.0 
 323   22:10    0.0    14   65.9    21    278.6    25.9   999.0 
 323   22:20    0.0    13   68.3    24    275.4    30.6   999.0 
 323   22:30    0.0    13   68.2    25    279.0    30.6   999.0 
 323   22:40    0.0    13   66.3    21    283.4    28.2   999.0 
 323   22:50    0.0    13   62.0    22    286.0    28.2   999.0 
 323   23:00    0.0    13   55.1    22    278.7    28.2   999.0 
 323   23:10    0.0    14   43.8    21    276.1    25.9   999.0 
 323   23:20    0.0    14   46.3    15    276.4    18.8   999.0 
 323   23:30    0.0    14   47.7    13    274.1    18.8   999.0 
 323   23:40    0.0    14   48.8    13    276.7    18.8   999.0 
 323   23:50    0.0    13   49.9    16    273.3    23.5   999.0 
 324    0:00    0.0    13   48.4    18    272.6    28.2   999.0 
 324    0:10    0.0    14   44.4    23    272.4    30.6   999.0 
 324    0:20    0.0    14   39.2    25    273.4    33.0   999.0 
 324    0:30    0.0    14   36.7    27    275.3    37.7   999.0 
 324    0:40    0.0    14   38.9    24    277.8    35.3   999.0 
 324    0:50    0.0    14   34.7    30    277.3    37.7   999.0 
 324    1:00    0.0    14   30.2    17    285.5    23.5   999.0 
 324    1:10    0.0    14   27.6    21    275.2    35.3   999.0 
 324    1:20    0.0    14   25.6    22    278.1    35.3   999.0 
 324    1:30    0.0    14   23.0    27    272.9    42.4   999.0 
 324    1:40    0.0    14   22.9    25    272.4    37.7   999.0 
 324    1:50    0.0    14   22.4    22    272.9    35.3   999.0 
 324    2:00    0.0    14   22.7    19    276.3    33.0   999.0 
 324    2:10    0.0    14   23.4    21    274.8    30.6   999.0 
 324    2:20    0.0    14   22.2    20    279.0    28.2   999.0 
 324    2:30    0.0    14   20.6    18    279.8    37.7   999.0 
 324    2:40    0.0    14   20.3    17    297.4    33.0   999.0 
 324    2:50    0.0    14   21.2    16    292.8    23.5   999.0 
 324    3:00    0.0    14   21.6    19    298.9    30.6   999.0 
 324    3:10    0.0    14   22.0    19    292.1    35.3   999.0 
 324    3:20    0.0    14   21.8    14    274.4    25.9   999.0 
 324    3:30    0.0    15   21.6    20    281.0    33.0   999.0 
 324    3:40    0.0    15   22.4    28    274.5    44.7   999.0 
 324    3:50    0.0    14   23.7    16    284.2    28.2   999.0 
 324    4:00    0.0    14   24.0    13    274.4    18.8   999.0 
 324    4:10    0.0    14   23.4    11    305.3    21.2   999.0 
 324    4:20    0.0    15   22.1    21    268.2    33.0   999.0 
 324    4:30    0.0    15   24.2    21    277.9    28.2   999.0 
 324    4:40    0.0    14   25.4    13    304.2    28.2   999.0 
 324    4:50    0.0    14   25.6    16    281.8    33.0   999.0 
 324    5:00    0.0    15   26.1    22    275.3    30.6   999.0 
 324    5:10    0.0    15   27.3    22    275.3    40.0   999.0 
 324    5:20    0.0    15   27.6    24    272.6    35.3   999.0 
 324    5:30    0.0    15   28.6    13    292.5    21.2   999.0 
 324    5:40    0.0    15   28.8    21    275.9    33.0   999.0 
 324    5:50    0.0    15   28.8    18    271.6    25.9   999.0 
 324    6:00    0.0    15   29.0    18    270.6    28.2   999.0 
 324    6:10    0.0    15   29.4    16    280.8    28.2   999.0 
 324    6:20    0.0    15   29.0    16    276.9    25.9   999.0 
 324    6:30    0.0    15   29.4    19    272.6    23.5   999.0 
 324    6:40    0.0    15   29.3    20    273.9    28.2   999.0 
 324    6:50    0.0    15   29.0    22    270.5    28.2   999.0 
 324    7:00    0.0    15   28.6    28    269.0    33.0   999.0 
 324    7:10    0.0    16   28.3    20    275.5    28.2   999.0 
 324    7:20    0.0    16   27.5    24    268.1    30.6   999.0 
 324    7:30    0.0    17   27.5    25    266.2    30.6   999.0 
 324    7:40    5.0    17   26.8    26    262.9    30.6   999.0 
 324    7:50  151.0    18   26.3    24    267.2    28.2   999.0 
 324    8:00  269.0    19   25.0    21    265.5    25.9   999.0 
 324    8:10  222.0    19   24.7    20    268.4    23.5   999.0 
 324    8:20   11.0    21   23.7    20    266.5    23.5   999.0 
 324    8:30   69.0    21   22.8    22    266.6    25.9   999.0 
 324    8:40  1392.0    21   22.5    21    266.8    25.9   999.0 
 324    8:50  370.0    20   22.2    22    266.5    28.2   999.0 
 324    9:00  541.0    21   21.8    23    265.6    25.9   999.0 
 324    9:10  294.0    21   21.1    24    265.2    28.2   999.0 
 324    9:20    1.0    20   21.6    26    267.3    30.6   999.0 
 324    9:30    0.0    20   21.9    26    266.3    33.0   999.0 
 324    9:40    0.0    21   20.5    32    266.7    37.7   999.0 
 324    9:50    0.0    21   20.4    26    266.4    33.0   999.0 
 324   10:00    0.0    22   19.7    32    264.8    40.0   999.0 
 324   10:10    0.0    22   20.1    34    266.2    40.0   999.0 
 324   10:20    0.0    22   20.0    34    265.9    44.7   999.0 
 324   10:30    0.0    22   19.8    32    266.1    42.4   999.0 
 324   10:40    0.0    23   19.2    27    265.8    33.0   999.0 
 324   10:50    0.0    23   19.9    26    265.4    33.0   999.0 
 324   11:00    0.0    23   20.0    26    266.7    33.0   999.0 
 324   11:10    0.0    24   19.5    29    265.3    33.0   999.0 
 324   11:20    0.0    24   19.9    24    266.0    30.6   999.0 
 324   11:30    0.0    24   19.9    27    267.2    35.3   999.0 
 324   11:40    0.0    26   18.6    27    264.0    33.0   999.0 
 324   11:50    0.0    26   19.6    31    266.7    35.3   999.0 
 324   12:00    0.0    26   20.5    32    266.5    40.0   999.0 
 324   12:10    0.0    26   21.5    33    267.0    44.7   999.0 
 324   12:20    0.0    24   24.9    33    267.0    42.4   999.0 
 324   12:30    0.0    24   24.7    34    266.6    42.4   999.0 
 324   12:40    0.0    25   25.0    26    266.4    33.0   999.0 
 324   12:50    0.0    26   24.7    22    267.6    33.0   999.0 
 324   13:00    0.0    26   25.8    23    264.5    33.0   999.0 
 324   13:10    0.0    26   25.8    30    263.7    42.4   999.0 
 324   13:20    0.0    25   30.1    31    264.6    35.3   999.0 
 324   13:30    0.0    24   27.3    33    265.7    42.4   999.0 
 324   13:40    0.0    24   26.2    36    265.7    44.7   999.0 
 324   13:50    0.0    24   27.6    36    267.5    47.1   999.0 
 324   14:00    0.0    23   28.1    37    269.2    47.1   999.0 
 324   14:10    0.0    23   30.1    42    266.0    54.1   999.0 
 324   14:20    0.0    22   31.1    40    269.4    49.4   999.0 
 324   14:30    0.0    23   32.3    38    270.5    47.1   999.0 
 324   14:40    0.0    24   31.5    40    266.4    47.1   999.0 
 324   14:50    0.0    23   32.9    39    266.2    49.4   999.0 
 324   15:00    0.0    22   35.2    37    268.0    44.7   999.0 
 324   15:10    0.0    22   36.0    38    266.4    47.1   999.0 
 324   15:20    0.0    22   36.3    39    266.2    47.1   999.0 
 324   15:30    0.0    22   37.1    40    265.3    49.4   999.0 
 324   15:40    0.0    21   37.5    38    265.5    47.1   999.0 
 324   15:50    0.0    20   39.8    38    266.0    44.7   999.0 
 324   16:00    0.0    19   42.0    37    265.3    49.4   999.0 
 324   16:10    0.0    18   45.6    34    264.6    42.4   999.0 
 324   16:20    0.0    18   48.4    30    265.3    35.3   999.0 
 324   16:30    0.0    17   50.7    29    266.4    35.3   999.0 
 324   16:40    0.0    17   52.6    27    265.8    33.0   999.0 
 324   16:50    0.0    17   54.5    26    265.9    33.0   999.0 
 324   17:00    0.0    16   56.7    23    266.6    28.2   999.0 
 324   17:10    0.0    16   55.6    22    267.3    30.6   999.0 
 324   17:20    0.0    15   55.4    21    265.5    28.2   999.0 
 324   17:30    0.0    15   55.1    17    266.1    25.9   999.0 
 324   17:40    0.0    15   55.8    13    262.4    16.5   999.0 

Return to White Mountain graphs page.


Western Regional Climate Center,wrcc@dri.edu